Accueil
METAR-TAF:

METAR-TAF

Aéroports :

Aéroport de Liège

Liège, Belgique

latitude: 50-39N, longitude: 005-27E, altitude: 186 m

Observation

Le bulletin a été fait il y a 38 minutes, à 16:20 UTC
Vent 13 kt de sud-ouest
Température 13°C
Humidité 94%
Pression 1022 hPa
Visibilité 10 km ou plus
Nuages fragmentés à une hauteur de 3200 ft

METAR: EBLG 301620Z 22013KT 9999 BKN032 13/12 Q1022 NOSIG

Heure: 17:58 (16:58 UTC)

Prévision

Le bulletin a été fait il y a 5 heures et 54 minutes, à 11:04 UTC
Prévision valable du 30 à 12 UTC au 31 à 18 UTC
Vent 12 kt de sud-ouest
Visibilité 10 km ou plus
Quelques nuages à une hauteur de 1500 ft
Nuages fragmentés à une hauteur de 2500 ft

TAF: EBLG 301104Z 3012/3118 22012KT 9999 FEW015 BKN025

Observations et prévisions météorologiques de plus de 4000 aéroports (messages METAR et TAF).

Les stations disponibles sont représentées par des disques jaunes et rouges sur la carte.

Passer la souris dessus pour voir le nom de la station.

Cliquer dessus pour voir les observations et prévisions météorologiques.

Pour changer de carte: cliquez sur les boutons verts avec une croix noire pour zoomer, sur le bouton vert avec un tiret pour effectuer un zoom arrière, ou sur les flèches vertes pour les cartes adjacentes.


METAR-TAF: